sensor_id;sensor_type;location;lat;lon;timestamp;temperature;humidity
5723;DHT22;2886;49.722;8.612;2022-11-20T00:01:36;4.10;99.90
5723;DHT22;2886;49.722;8.612;2022-11-20T00:04:02;4.10;99.90
5723;DHT22;2886;49.722;8.612;2022-11-20T00:06:28;4.00;99.90
5723;DHT22;2886;49.722;8.612;2022-11-20T00:08:56;4.00;99.90
5723;DHT22;2886;49.722;8.612;2022-11-20T00:11:31;4.00;99.90
5723;DHT22;2886;49.722;8.612;2022-11-20T00:13:59;4.00;99.90
5723;DHT22;2886;49.722;8.612;2022-11-20T00:16:27;4.00;99.90
5723;DHT22;2886;49.722;8.612;2022-11-20T00:18:53;4.00;99.90
5723;DHT22;2886;49.722;8.612;2022-11-20T00:21:24;4.00;99.90
5723;DHT22;2886;49.722;8.612;2022-11-20T00:23:51;4.00;99.90
5723;DHT22;2886;49.722;8.612;2022-11-20T00:26:19;4.00;99.90
5723;DHT22;2886;49.722;8.612;2022-11-20T00:28:50;4.00;99.90
5723;DHT22;2886;49.722;8.612;2022-11-20T00:31:16;4.00;99.90
5723;DHT22;2886;49.722;8.612;2022-11-20T00:33:43;4.10;99.90
5723;DHT22;2886;49.722;8.612;2022-11-20T00:36:21;4.00;99.90
5723;DHT22;2886;49.722;8.612;2022-11-20T00:38:51;4.10;99.90
5723;DHT22;2886;49.722;8.612;2022-11-20T00:41:17;4.10;99.90
5723;DHT22;2886;49.722;8.612;2022-11-20T00:43:43;4.00;99.90
5723;DHT22;2886;49.722;8.612;2022-11-20T00:46:13;4.00;99.90
5723;DHT22;2886;49.722;8.612;2022-11-20T00:48:38;4.00;99.90
5723;DHT22;2886;49.722;8.612;2022-11-20T00:51:05;4.00;99.90
5723;DHT22;2886;49.722;8.612;2022-11-20T00:53:31;4.00;99.90
5723;DHT22;2886;49.722;8.612;2022-11-20T00:55:59;4.00;99.90
5723;DHT22;2886;49.722;8.612;2022-11-20T00:58:29;4.00;99.90
5723;DHT22;2886;49.722;8.612;2022-11-20T01:01:00;4.00;99.90
5723;DHT22;2886;49.722;8.612;2022-11-20T01:03:26;4.00;99.90
5723;DHT22;2886;49.722;8.612;2022-11-20T01:05:51;4.00;99.90
5723;DHT22;2886;49.722;8.612;2022-11-20T01:08:17;4.00;99.90
5723;DHT22;2886;49.722;8.612;2022-11-20T01:10:43;4.00;99.90
5723;DHT22;2886;49.722;8.612;2022-11-20T01:13:08;4.00;99.90
5723;DHT22;2886;49.722;8.612;2022-11-20T01:15:53;4.00;99.90
5723;DHT22;2886;49.722;8.612;2022-11-20T01:18:19;4.00;99.90
5723;DHT22;2886;49.722;8.612;2022-11-20T01:20:45;4.00;99.90
5723;DHT22;2886;49.722;8.612;2022-11-20T01:23:11;4.00;99.90
5723;DHT22;2886;49.722;8.612;2022-11-20T01:25:36;4.00;99.90
5723;DHT22;2886;49.722;8.612;2022-11-20T01:28:02;4.10;99.90
5723;DHT22;2886;49.722;8.612;2022-11-20T01:30:28;4.10;99.90
5723;DHT22;2886;49.722;8.612;2022-11-20T01:32:55;4.10;99.90
5723;DHT22;2886;49.722;8.612;2022-11-20T01:35:21;4.10;99.90
5723;DHT22;2886;49.722;8.612;2022-11-20T01:37:46;4.10;99.90
5723;DHT22;2886;49.722;8.612;2022-11-20T01:40:12;4.10;99.90
5723;DHT22;2886;49.722;8.612;2022-11-20T01:42:38;4.10;99.90
5723;DHT22;2886;49.722;8.612;2022-11-20T01:48:30;4.10;99.90
5723;DHT22;2886;49.722;8.612;2022-11-20T01:50:57;4.10;99.90
5723;DHT22;2886;49.722;8.612;2022-11-20T01:53:26;4.10;99.90
5723;DHT22;2886;49.722;8.612;2022-11-20T01:55:55;4.10;99.90
5723;DHT22;2886;49.722;8.612;2022-11-20T01:58:32;4.10;99.90
5723;DHT22;2886;49.722;8.612;2022-11-20T02:00:58;4.10;99.90
5723;DHT22;2886;49.722;8.612;2022-11-20T02:03:24;4.10;99.90
5723;DHT22;2886;49.722;8.612;2022-11-20T02:06:24;4.10;99.90
5723;DHT22;2886;49.722;8.612;2022-11-20T02:08:51;4.10;99.90
5723;DHT22;2886;49.722;8.612;2022-11-20T02:11:17;4.00;99.90
5723;DHT22;2886;49.722;8.612;2022-11-20T02:13:43;3.90;99.90
5723;DHT22;2886;49.722;8.612;2022-11-20T02:18:44;3.90;99.90
5723;DHT22;2886;49.722;8.612;2022-11-20T02:24:17;4.00;99.90
5723;DHT22;2886;49.722;8.612;2022-11-20T02:26:53;4.00;99.90
5723;DHT22;2886;49.722;8.612;2022-11-20T02:29:25;4.00;99.90
5723;DHT22;2886;49.722;8.612;2022-11-20T02:31:52;3.90;99.90
5723;DHT22;2886;49.722;8.612;2022-11-20T02:34:19;3.90;99.90
5723;DHT22;2886;49.722;8.612;2022-11-20T02:36:45;4.00;99.90
5723;DHT22;2886;49.722;8.612;2022-11-20T02:39:13;4.00;99.90
5723;DHT22;2886;49.722;8.612;2022-11-20T02:41:42;3.90;99.90
5723;DHT22;2886;49.722;8.612;2022-11-20T02:44:08;4.00;99.90
5723;DHT22;2886;49.722;8.612;2022-11-20T02:46:34;4.00;99.90
5723;DHT22;2886;49.722;8.612;2022-11-20T02:49:01;4.00;99.90
5723;DHT22;2886;49.722;8.612;2022-11-20T02:51:29;4.00;99.90
5723;DHT22;2886;49.722;8.612;2022-11-20T02:53:55;4.00;99.90
5723;DHT22;2886;49.722;8.612;2022-11-20T02:56:20;4.00;99.90
5723;DHT22;2886;49.722;8.612;2022-11-20T02:58:46;4.00;99.90
5723;DHT22;2886;49.722;8.612;2022-11-20T03:01:11;4.00;99.90
5723;DHT22;2886;49.722;8.612;2022-11-20T03:03:37;4.00;99.90
5723;DHT22;2886;49.722;8.612;2022-11-20T03:06:03;4.00;99.90
5723;DHT22;2886;49.722;8.612;2022-11-20T03:08:28;4.00;99.90
5723;DHT22;2886;49.722;8.612;2022-11-20T03:10:54;4.00;99.90
5723;DHT22;2886;49.722;8.612;2022-11-20T03:13:20;4.00;99.90
5723;DHT22;2886;49.722;8.612;2022-11-20T03:15:45;4.00;99.90
5723;DHT22;2886;49.722;8.612;2022-11-20T03:18:11;4.00;99.90
5723;DHT22;2886;49.722;8.612;2022-11-20T03:20:38;4.00;99.90
5723;DHT22;2886;49.722;8.612;2022-11-20T03:23:04;4.00;99.90
5723;DHT22;2886;49.722;8.612;2022-11-20T03:25:30;4.00;99.90
5723;DHT22;2886;49.722;8.612;2022-11-20T03:27:56;3.90;99.90
5723;DHT22;2886;49.722;8.612;2022-11-20T03:30:21;3.90;99.90
5723;DHT22;2886;49.722;8.612;2022-11-20T03:32:47;3.90;99.90
5723;DHT22;2886;49.722;8.612;2022-11-20T03:35:12;4.00;99.90
5723;DHT22;2886;49.722;8.612;2022-11-20T03:37:38;4.00;99.90
5723;DHT22;2886;49.722;8.612;2022-11-20T03:40:04;4.00;99.90
5723;DHT22;2886;49.722;8.612;2022-11-20T03:42:30;4.00;99.90
5723;DHT22;2886;49.722;8.612;2022-11-20T03:45:15;4.00;99.90
5723;DHT22;2886;49.722;8.612;2022-11-20T03:47:41;3.90;99.90
5723;DHT22;2886;49.722;8.612;2022-11-20T03:50:08;3.90;99.90
5723;DHT22;2886;49.722;8.612;2022-11-20T03:52:42;3.90;99.90
5723;DHT22;2886;49.722;8.612;2022-11-20T03:55:08;4.00;99.90
5723;DHT22;2886;49.722;8.612;2022-11-20T03:57:34;4.00;99.90
5723;DHT22;2886;49.722;8.612;2022-11-20T03:59:59;4.00;99.90
5723;DHT22;2886;49.722;8.612;2022-11-20T04:02:25;3.90;99.90
5723;DHT22;2886;49.722;8.612;2022-11-20T04:04:51;3.90;99.90
5723;DHT22;2886;49.722;8.612;2022-11-20T04:07:35;3.90;99.90
5723;DHT22;2886;49.722;8.612;2022-11-20T04:10:01;4.00;99.90
5723;DHT22;2886;49.722;8.612;2022-11-20T04:12:26;4.00;99.90
5723;DHT22;2886;49.722;8.612;2022-11-20T04:14:52;4.00;99.90
5723;DHT22;2886;49.722;8.612;2022-11-20T04:17:18;4.00;99.90
5723;DHT22;2886;49.722;8.612;2022-11-20T04:19:43;4.00;99.90
5723;DHT22;2886;49.722;8.612;2022-11-20T04:22:09;4.00;99.90
5723;DHT22;2886;49.722;8.612;2022-11-20T04:24:36;4.00;99.90
5723;DHT22;2886;49.722;8.612;2022-11-20T04:27:02;4.00;99.90
5723;DHT22;2886;49.722;8.612;2022-11-20T04:29:27;4.00;99.90
5723;DHT22;2886;49.722;8.612;2022-11-20T04:31:53;4.00;99.90
5723;DHT22;2886;49.722;8.612;2022-11-20T04:34:19;4.00;99.90
5723;DHT22;2886;49.722;8.612;2022-11-20T04:36:44;4.00;99.90
5723;DHT22;2886;49.722;8.612;2022-11-20T04:39:14;4.10;99.90
5723;DHT22;2886;49.722;8.612;2022-11-20T04:41:40;4.10;99.90
5723;DHT22;2886;49.722;8.612;2022-11-20T04:44:06;4.10;99.90
5723;DHT22;2886;49.722;8.612;2022-11-20T04:46:38;4.10;99.90
5723;DHT22;2886;49.722;8.612;2022-11-20T04:49:04;4.10;99.90
5723;DHT22;2886;49.722;8.612;2022-11-20T04:51:29;4.10;99.90
5723;DHT22;2886;49.722;8.612;2022-11-20T04:53:55;4.10;99.90
5723;DHT22;2886;49.722;8.612;2022-11-20T04:56:21;4.10;99.90
5723;DHT22;2886;49.722;8.612;2022-11-20T04:58:46;4.10;99.90
5723;DHT22;2886;49.722;8.612;2022-11-20T05:01:17;4.20;99.90
5723;DHT22;2886;49.722;8.612;2022-11-20T05:03:43;4.20;99.90
5723;DHT22;2886;49.722;8.612;2022-11-20T05:06:20;4.20;99.90
5723;DHT22;2886;49.722;8.612;2022-11-20T05:08:46;4.20;99.90
5723;DHT22;2886;49.722;8.612;2022-11-20T05:11:15;4.20;99.90
5723;DHT22;2886;49.722;8.612;2022-11-20T05:13:41;4.20;99.90
5723;DHT22;2886;49.722;8.612;2022-11-20T05:16:09;4.20;99.90
5723;DHT22;2886;49.722;8.612;2022-11-20T05:18:36;4.20;99.90
5723;DHT22;2886;49.722;8.612;2022-11-20T05:21:02;4.30;99.90
5723;DHT22;2886;49.722;8.612;2022-11-20T05:23:31;4.30;99.90
5723;DHT22;2886;49.722;8.612;2022-11-20T05:25:57;4.30;99.90
5723;DHT22;2886;49.722;8.612;2022-11-20T05:28:23;4.30;99.90
5723;DHT22;2886;49.722;8.612;2022-11-20T05:30:49;4.30;99.90
5723;DHT22;2886;49.722;8.612;2022-11-20T05:33:15;4.30;99.90
5723;DHT22;2886;49.722;8.612;2022-11-20T05:35:42;4.30;99.90
5723;DHT22;2886;49.722;8.612;2022-11-20T05:38:07;4.30;99.90
5723;DHT22;2886;49.722;8.612;2022-11-20T05:40:33;4.20;99.90
5723;DHT22;2886;49.722;8.612;2022-11-20T05:43:00;4.20;99.90
5723;DHT22;2886;49.722;8.612;2022-11-20T05:45:25;4.20;99.90
5723;DHT22;2886;49.722;8.612;2022-11-20T05:47:51;4.20;99.90
5723;DHT22;2886;49.722;8.612;2022-11-20T05:50:17;4.20;99.90
5723;DHT22;2886;49.722;8.612;2022-11-20T05:52:42;4.20;99.90
5723;DHT22;2886;49.722;8.612;2022-11-20T05:55:08;4.10;99.90
5723;DHT22;2886;49.722;8.612;2022-11-20T05:57:34;4.10;99.90
5723;DHT22;2886;49.722;8.612;2022-11-20T06:00:00;4.00;99.90
5723;DHT22;2886;49.722;8.612;2022-11-20T06:02:25;4.10;99.90
5723;DHT22;2886;49.722;8.612;2022-11-20T06:04:51;4.00;99.90
5723;DHT22;2886;49.722;8.612;2022-11-20T06:07:16;4.00;99.90
5723;DHT22;2886;49.722;8.612;2022-11-20T06:09:42;4.10;99.90
5723;DHT22;2886;49.722;8.612;2022-11-20T06:12:08;4.10;99.90
5723;DHT22;2886;49.722;8.612;2022-11-20T06:14:33;4.00;99.90
5723;DHT22;2886;49.722;8.612;2022-11-20T06:16:59;4.10;99.90
5723;DHT22;2886;49.722;8.612;2022-11-20T06:19:25;4.20;99.90
5723;DHT22;2886;49.722;8.612;2022-11-20T06:21:50;4.20;99.90
5723;DHT22;2886;49.722;8.612;2022-11-20T06:24:16;4.20;99.90
5723;DHT22;2886;49.722;8.612;2022-11-20T06:26:44;4.20;99.90
5723;DHT22;2886;49.722;8.612;2022-11-20T06:29:09;4.10;99.90
5723;DHT22;2886;49.722;8.612;2022-11-20T06:31:35;4.00;99.90
5723;DHT22;2886;49.722;8.612;2022-11-20T06:34:06;4.00;99.90
5723;DHT22;2886;49.722;8.612;2022-11-20T06:36:33;4.00;99.90
5723;DHT22;2886;49.722;8.612;2022-11-20T06:38:59;3.90;99.90
5723;DHT22;2886;49.722;8.612;2022-11-20T06:41:25;3.90;99.90
5723;DHT22;2886;49.722;8.612;2022-11-20T06:43:51;3.90;99.90
5723;DHT22;2886;49.722;8.612;2022-11-20T06:46:18;4.00;99.90
5723;DHT22;2886;49.722;8.612;2022-11-20T06:48:44;4.00;99.90
5723;DHT22;2886;49.722;8.612;2022-11-20T06:51:10;4.00;99.90
5723;DHT22;2886;49.722;8.612;2022-11-20T06:53:36;4.00;99.90
5723;DHT22;2886;49.722;8.612;2022-11-20T06:56:02;4.00;99.90
5723;DHT22;2886;49.722;8.612;2022-11-20T06:58:29;4.00;99.90
5723;DHT22;2886;49.722;8.612;2022-11-20T07:00:59;4.00;99.90
5723;DHT22;2886;49.722;8.612;2022-11-20T07:03:25;4.10;99.90
5723;DHT22;2886;49.722;8.612;2022-11-20T07:05:51;4.10;99.90
5723;DHT22;2886;49.722;8.612;2022-11-20T07:08:19;4.20;99.90
5723;DHT22;2886;49.722;8.612;2022-11-20T07:10:45;4.20;99.90
5723;DHT22;2886;49.722;8.612;2022-11-20T07:13:11;4.20;99.90
5723;DHT22;2886;49.722;8.612;2022-11-20T07:15:36;4.20;99.90
5723;DHT22;2886;49.722;8.612;2022-11-20T07:18:02;4.20;99.90
5723;DHT22;2886;49.722;8.612;2022-11-20T07:20:28;4.20;99.90
5723;DHT22;2886;49.722;8.612;2022-11-20T07:22:54;4.20;99.90
5723;DHT22;2886;49.722;8.612;2022-11-20T07:25:21;4.20;99.90
5723;DHT22;2886;49.722;8.612;2022-11-20T07:27:47;4.20;99.90
5723;DHT22;2886;49.722;8.612;2022-11-20T07:30:14;4.20;99.90
5723;DHT22;2886;49.722;8.612;2022-11-20T07:32:39;4.20;99.90
5723;DHT22;2886;49.722;8.612;2022-11-20T07:35:05;4.30;99.90
5723;DHT22;2886;49.722;8.612;2022-11-20T07:37:34;4.30;99.90
5723;DHT22;2886;49.722;8.612;2022-11-20T07:40:00;4.30;99.90
5723;DHT22;2886;49.722;8.612;2022-11-20T07:42:25;4.20;99.90
5723;DHT22;2886;49.722;8.612;2022-11-20T07:44:51;4.10;99.90
5723;DHT22;2886;49.722;8.612;2022-11-20T07:47:17;4.00;99.90
5723;DHT22;2886;49.722;8.612;2022-11-20T07:49:42;3.90;99.90
5723;DHT22;2886;49.722;8.612;2022-11-20T07:52:08;3.90;99.90
5723;DHT22;2886;49.722;8.612;2022-11-20T07:54:33;3.90;99.90
5723;DHT22;2886;49.722;8.612;2022-11-20T07:56:59;3.80;99.90
5723;DHT22;2886;49.722;8.612;2022-11-20T07:59:25;3.80;99.90
5723;DHT22;2886;49.722;8.612;2022-11-20T08:01:50;3.80;99.90
5723;DHT22;2886;49.722;8.612;2022-11-20T08:04:16;3.80;99.90
5723;DHT22;2886;49.722;8.612;2022-11-20T08:06:43;3.70;99.90
5723;DHT22;2886;49.722;8.612;2022-11-20T08:09:08;3.60;99.90
5723;DHT22;2886;49.722;8.612;2022-11-20T08:11:35;3.60;99.90
5723;DHT22;2886;49.722;8.612;2022-11-20T08:14:19;3.60;99.90
5723;DHT22;2886;49.722;8.612;2022-11-20T08:16:48;3.60;99.90
5723;DHT22;2886;49.722;8.612;2022-11-20T08:19:16;3.60;99.90
5723;DHT22;2886;49.722;8.612;2022-11-20T08:21:43;3.60;99.90
5723;DHT22;2886;49.722;8.612;2022-11-20T08:24:09;3.50;99.90
5723;DHT22;2886;49.722;8.612;2022-11-20T08:26:36;3.50;99.90
5723;DHT22;2886;49.722;8.612;2022-11-20T08:29:02;3.50;99.90
5723;DHT22;2886;49.722;8.612;2022-11-20T08:31:28;3.60;99.90
5723;DHT22;2886;49.722;8.612;2022-11-20T08:33:55;3.60;99.90
5723;DHT22;2886;49.722;8.612;2022-11-20T08:36:24;3.60;99.90
5723;DHT22;2886;49.722;8.612;2022-11-20T08:38:51;3.60;99.90
5723;DHT22;2886;49.722;8.612;2022-11-20T08:41:17;3.60;99.90
5723;DHT22;2886;49.722;8.612;2022-11-20T08:43:57;3.80;99.90
5723;DHT22;2886;49.722;8.612;2022-11-20T08:46:37;3.80;99.90
5723;DHT22;2886;49.722;8.612;2022-11-20T08:49:07;3.80;99.90
5723;DHT22;2886;49.722;8.612;2022-11-20T08:51:34;3.90;99.90
5723;DHT22;2886;49.722;8.612;2022-11-20T08:54:00;3.90;99.90
5723;DHT22;2886;49.722;8.612;2022-11-20T08:56:25;3.90;99.90
5723;DHT22;2886;49.722;8.612;2022-11-20T08:58:51;3.90;99.90
5723;DHT22;2886;49.722;8.612;2022-11-20T09:01:23;4.10;99.90
5723;DHT22;2886;49.722;8.612;2022-11-20T09:03:49;4.10;99.90
5723;DHT22;2886;49.722;8.612;2022-11-20T09:06:15;4.20;99.90
5723;DHT22;2886;49.722;8.612;2022-11-20T09:08:41;4.30;99.90
5723;DHT22;2886;49.722;8.612;2022-11-20T09:11:07;4.20;99.90
5723;DHT22;2886;49.722;8.612;2022-11-20T09:13:34;4.20;99.90
5723;DHT22;2886;49.722;8.612;2022-11-20T09:16:02;4.30;99.90
5723;DHT22;2886;49.722;8.612;2022-11-20T09:18:28;4.40;99.90
5723;DHT22;2886;49.722;8.612;2022-11-20T09:20:59;4.50;99.90
5723;DHT22;2886;49.722;8.612;2022-11-20T09:23:26;4.50;99.90
5723;DHT22;2886;49.722;8.612;2022-11-20T09:25:52;4.50;99.90
5723;DHT22;2886;49.722;8.612;2022-11-20T09:28:18;4.60;99.90
5723;DHT22;2886;49.722;8.612;2022-11-20T09:30:44;4.70;99.90
5723;DHT22;2886;49.722;8.612;2022-11-20T09:33:10;4.80;99.90
5723;DHT22;2886;49.722;8.612;2022-11-20T09:35:35;4.80;99.90
5723;DHT22;2886;49.722;8.612;2022-11-20T09:38:05;4.90;99.90
5723;DHT22;2886;49.722;8.612;2022-11-20T09:40:32;4.90;99.90
5723;DHT22;2886;49.722;8.612;2022-11-20T09:44:05;4.90;99.90
5723;DHT22;2886;49.722;8.612;2022-11-20T09:49:07;5.00;99.90
5723;DHT22;2886;49.722;8.612;2022-11-20T09:51:58;5.00;99.90
5723;DHT22;2886;49.722;8.612;2022-11-20T09:54:37;5.00;99.90
5723;DHT22;2886;49.722;8.612;2022-11-20T09:57:18;5.00;99.90
5723;DHT22;2886;49.722;8.612;2022-11-20T09:59:54;5.10;99.90
5723;DHT22;2886;49.722;8.612;2022-11-20T10:02:52;5.10;99.90
5723;DHT22;2886;49.722;8.612;2022-11-20T10:05:27;5.10;99.90
5723;DHT22;2886;49.722;8.612;2022-11-20T10:10:36;5.20;99.90
5723;DHT22;2886;49.722;8.612;2022-11-20T10:16:18;5.30;99.90
5723;DHT22;2886;49.722;8.612;2022-11-20T10:19:09;5.30;99.90
5723;DHT22;2886;49.722;8.612;2022-11-20T10:27:42;5.40;99.90
5723;DHT22;2886;49.722;8.612;2022-11-20T10:30:14;5.50;99.90
5723;DHT22;2886;49.722;8.612;2022-11-20T10:32:47;5.50;99.90
5723;DHT22;2886;49.722;8.612;2022-11-20T10:37:42;5.50;99.90
5723;DHT22;2886;49.722;8.612;2022-11-20T10:40:23;5.40;99.90
5723;DHT22;2886;49.722;8.612;2022-11-20T10:45:22;5.40;99.90
5723;DHT22;2886;49.722;8.612;2022-11-20T10:48:01;5.40;99.90
5723;DHT22;2886;49.722;8.612;2022-11-20T10:50:35;5.40;99.90
5723;DHT22;2886;49.722;8.612;2022-11-20T10:53:08;5.40;99.90
5723;DHT22;2886;49.722;8.612;2022-11-20T10:55:46;5.40;99.90
5723;DHT22;2886;49.722;8.612;2022-11-20T11:01:17;5.40;99.90
5723;DHT22;2886;49.722;8.612;2022-11-20T11:03:43;5.40;99.90
5723;DHT22;2886;49.722;8.612;2022-11-20T11:06:35;5.30;99.90
5723;DHT22;2886;49.722;8.612;2022-11-20T11:09:10;5.40;99.90
5723;DHT22;2886;49.722;8.612;2022-11-20T11:11:38;5.40;99.90
5723;DHT22;2886;49.722;8.612;2022-11-20T11:14:11;5.50;99.90
5723;DHT22;2886;49.722;8.612;2022-11-20T11:16:52;5.50;99.90
5723;DHT22;2886;49.722;8.612;2022-11-20T11:19:18;5.40;99.90
5723;DHT22;2886;49.722;8.612;2022-11-20T11:21:53;5.40;99.90
5723;DHT22;2886;49.722;8.612;2022-11-20T11:24:21;5.40;99.90
5723;DHT22;2886;49.722;8.612;2022-11-20T11:27:11;5.50;99.90
5723;DHT22;2886;49.722;8.612;2022-11-20T11:29:37;5.60;99.90
5723;DHT22;2886;49.722;8.612;2022-11-20T11:32:08;5.80;99.90
5723;DHT22;2886;49.722;8.612;2022-11-20T11:34:34;5.90;99.90
5723;DHT22;2886;49.722;8.612;2022-11-20T11:37:01;6.00;99.90
5723;DHT22;2886;49.722;8.612;2022-11-20T11:39:29;6.10;99.90
5723;DHT22;2886;49.722;8.612;2022-11-20T11:41:57;6.20;99.90
5723;DHT22;2886;49.722;8.612;2022-11-20T11:44:33;6.30;99.90
5723;DHT22;2886;49.722;8.612;2022-11-20T11:49:48;6.40;99.90
5723;DHT22;2886;49.722;8.612;2022-11-20T11:52:18;6.40;99.90
5723;DHT22;2886;49.722;8.612;2022-11-20T11:54:58;6.40;99.90
5723;DHT22;2886;49.722;8.612;2022-11-20T12:00:12;6.40;99.90
5723;DHT22;2886;49.722;8.612;2022-11-20T12:05:36;6.50;99.90
5723;DHT22;2886;49.722;8.612;2022-11-20T12:16:01;6.70;99.90
5723;DHT22;2886;49.722;8.612;2022-11-20T12:18:28;6.60;99.90
5723;DHT22;2886;49.722;8.612;2022-11-20T12:29:05;6.80;99.90
5723;DHT22;2886;49.722;8.612;2022-11-20T12:31:51;6.80;99.90
5723;DHT22;2886;49.722;8.612;2022-11-20T12:39:50;6.90;99.90
5723;DHT22;2886;49.722;8.612;2022-11-20T12:42:48;6.80;99.90
5723;DHT22;2886;49.722;8.612;2022-11-20T12:48:42;6.70;99.90
5723;DHT22;2886;49.722;8.612;2022-11-20T12:56:55;7.00;99.90
5723;DHT22;2886;49.722;8.612;2022-11-20T13:01:52;7.00;99.90
5723;DHT22;2886;49.722;8.612;2022-11-20T13:07:03;7.00;99.90
5723;DHT22;2886;49.722;8.612;2022-11-20T13:09:30;7.00;99.90
5723;DHT22;2886;49.722;8.612;2022-11-20T13:12:13;7.00;99.90
5723;DHT22;2886;49.722;8.612;2022-11-20T13:15:11;7.00;99.90
5723;DHT22;2886;49.722;8.612;2022-11-20T13:18:00;6.90;99.90
5723;DHT22;2886;49.722;8.612;2022-11-20T13:20:26;7.00;99.90
5723;DHT22;2886;49.722;8.612;2022-11-20T13:22:54;7.00;99.90
5723;DHT22;2886;49.722;8.612;2022-11-20T13:25:31;7.10;99.90
5723;DHT22;2886;49.722;8.612;2022-11-20T13:30:37;7.10;99.90
5723;DHT22;2886;49.722;8.612;2022-11-20T13:33:29;7.20;99.90
5723;DHT22;2886;49.722;8.612;2022-11-20T13:36:02;7.10;99.90
5723;DHT22;2886;49.722;8.612;2022-11-20T13:38:39;7.20;99.90
5723;DHT22;2886;49.722;8.612;2022-11-20T13:41:08;7.10;99.90
5723;DHT22;2886;49.722;8.612;2022-11-20T13:43:52;7.10;99.90
5723;DHT22;2886;49.722;8.612;2022-11-20T13:46:19;7.10;99.90
5723;DHT22;2886;49.722;8.612;2022-11-20T13:48:50;7.00;99.90
5723;DHT22;2886;49.722;8.612;2022-11-20T13:51:42;7.00;99.90
5723;DHT22;2886;49.722;8.612;2022-11-20T13:54:32;7.10;99.90
5723;DHT22;2886;49.722;8.612;2022-11-20T13:57:28;7.10;99.90
5723;DHT22;2886;49.722;8.612;2022-11-20T14:00:09;7.10;99.90
5723;DHT22;2886;49.722;8.612;2022-11-20T14:02:36;7.10;99.90
5723;DHT22;2886;49.722;8.612;2022-11-20T14:05:03;7.10;99.90
5723;DHT22;2886;49.722;8.612;2022-11-20T14:07:40;7.10;99.90
5723;DHT22;2886;49.722;8.612;2022-11-20T14:10:26;7.20;99.90
5723;DHT22;2886;49.722;8.612;2022-11-20T14:12:52;7.20;99.90
5723;DHT22;2886;49.722;8.612;2022-11-20T14:15:32;7.20;99.90
5723;DHT22;2886;49.722;8.612;2022-11-20T14:17:58;7.20;99.90
5723;DHT22;2886;49.722;8.612;2022-11-20T14:20:27;7.30;99.90
5723;DHT22;2886;49.722;8.612;2022-11-20T14:22:55;7.30;99.90
5723;DHT22;2886;49.722;8.612;2022-11-20T14:25:25;7.30;99.90
5723;DHT22;2886;49.722;8.612;2022-11-20T14:27:58;7.30;99.90
5723;DHT22;2886;49.722;8.612;2022-11-20T14:30:42;7.30;99.90
5723;DHT22;2886;49.722;8.612;2022-11-20T14:33:13;7.30;99.90
5723;DHT22;2886;49.722;8.612;2022-11-20T14:35:48;7.30;99.90
5723;DHT22;2886;49.722;8.612;2022-11-20T14:38:21;7.30;99.90
5723;DHT22;2886;49.722;8.612;2022-11-20T14:40:47;7.20;99.90
5723;DHT22;2886;49.722;8.612;2022-11-20T14:43:27;7.20;99.90
5723;DHT22;2886;49.722;8.612;2022-11-20T14:46:05;7.20;99.90
5723;DHT22;2886;49.722;8.612;2022-11-20T14:48:55;7.20;99.90
5723;DHT22;2886;49.722;8.612;2022-11-20T14:51:37;7.20;99.90
5723;DHT22;2886;49.722;8.612;2022-11-20T14:54:16;7.10;99.90
5723;DHT22;2886;49.722;8.612;2022-11-20T14:56:57;7.10;99.90
5723;DHT22;2886;49.722;8.612;2022-11-20T14:59:28;7.00;99.90
5723;DHT22;2886;49.722;8.612;2022-11-20T15:01:58;7.00;99.90
5723;DHT22;2886;49.722;8.612;2022-11-20T15:04:24;7.00;99.90
5723;DHT22;2886;49.722;8.612;2022-11-20T15:06:51;6.90;99.90
5723;DHT22;2886;49.722;8.612;2022-11-20T15:09:17;6.90;99.90
5723;DHT22;2886;49.722;8.612;2022-11-20T15:11:56;6.90;99.90
5723;DHT22;2886;49.722;8.612;2022-11-20T15:14:23;6.90;99.90
5723;DHT22;2886;49.722;8.612;2022-11-20T15:16:50;6.90;99.90
5723;DHT22;2886;49.722;8.612;2022-11-20T15:19:21;6.80;99.90
5723;DHT22;2886;49.722;8.612;2022-11-20T15:21:48;6.90;99.90
5723;DHT22;2886;49.722;8.612;2022-11-20T15:24:14;6.90;99.90
5723;DHT22;2886;49.722;8.612;2022-11-20T15:26:40;6.90;99.90
5723;DHT22;2886;49.722;8.612;2022-11-20T15:29:09;6.90;99.90
5723;DHT22;2886;49.722;8.612;2022-11-20T15:31:42;6.80;99.90
5723;DHT22;2886;49.722;8.612;2022-11-20T15:34:14;6.90;99.90
5723;DHT22;2886;49.722;8.612;2022-11-20T15:36:41;6.90;99.90
5723;DHT22;2886;49.722;8.612;2022-11-20T15:39:07;6.90;99.90
5723;DHT22;2886;49.722;8.612;2022-11-20T15:41:38;6.90;99.90
5723;DHT22;2886;49.722;8.612;2022-11-20T15:44:04;6.90;99.90
5723;DHT22;2886;49.722;8.612;2022-11-20T15:46:31;6.90;99.90
5723;DHT22;2886;49.722;8.612;2022-11-20T15:49:04;6.90;99.90
5723;DHT22;2886;49.722;8.612;2022-11-20T15:51:35;6.90;99.90
5723;DHT22;2886;49.722;8.612;2022-11-20T15:54:05;6.90;99.90
5723;DHT22;2886;49.722;8.612;2022-11-20T15:56:34;6.90;99.90
5723;DHT22;2886;49.722;8.612;2022-11-20T15:59:00;6.90;99.90
5723;DHT22;2886;49.722;8.612;2022-11-20T16:01:25;6.80;99.90
5723;DHT22;2886;49.722;8.612;2022-11-20T16:03:51;6.80;99.90
5723;DHT22;2886;49.722;8.612;2022-11-20T16:06:17;6.80;99.90
5723;DHT22;2886;49.722;8.612;2022-11-20T16:08:43;6.80;99.90
5723;DHT22;2886;49.722;8.612;2022-11-20T16:11:12;6.80;99.90
5723;DHT22;2886;49.722;8.612;2022-11-20T16:13:38;6.70;99.90
5723;DHT22;2886;49.722;8.612;2022-11-20T16:16:25;6.70;99.90
5723;DHT22;2886;49.722;8.612;2022-11-20T16:18:54;6.70;99.90
5723;DHT22;2886;49.722;8.612;2022-11-20T16:21:20;6.70;99.90
5723;DHT22;2886;49.722;8.612;2022-11-20T16:23:46;6.70;99.90
5723;DHT22;2886;49.722;8.612;2022-11-20T16:26:16;6.70;99.90
5723;DHT22;2886;49.722;8.612;2022-11-20T16:28:46;6.70;99.90
5723;DHT22;2886;49.722;8.612;2022-11-20T16:31:18;6.70;99.90
5723;DHT22;2886;49.722;8.612;2022-11-20T16:33:49;6.70;99.90
5723;DHT22;2886;49.722;8.612;2022-11-20T16:36:16;6.70;99.90
5723;DHT22;2886;49.722;8.612;2022-11-20T16:38:42;6.70;99.90
5723;DHT22;2886;49.722;8.612;2022-11-20T16:41:08;6.70;99.90
5723;DHT22;2886;49.722;8.612;2022-11-20T16:43:49;6.70;99.90
5723;DHT22;2886;49.722;8.612;2022-11-20T16:46:17;6.70;99.90
5723;DHT22;2886;49.722;8.612;2022-11-20T16:48:43;6.70;99.90
5723;DHT22;2886;49.722;8.612;2022-11-20T16:51:11;6.70;99.90
5723;DHT22;2886;49.722;8.612;2022-11-20T16:53:37;6.70;99.90
5723;DHT22;2886;49.722;8.612;2022-11-20T16:56:17;6.70;99.90
5723;DHT22;2886;49.722;8.612;2022-11-20T16:58:44;6.70;99.90
5723;DHT22;2886;49.722;8.612;2022-11-20T17:01:12;6.70;99.90
5723;DHT22;2886;49.722;8.612;2022-11-20T17:03:39;6.70;99.90
5723;DHT22;2886;49.722;8.612;2022-11-20T17:06:19;6.70;99.90
5723;DHT22;2886;49.722;8.612;2022-11-20T17:08:46;6.70;99.90
5723;DHT22;2886;49.722;8.612;2022-11-20T17:11:14;6.70;99.90
5723;DHT22;2886;49.722;8.612;2022-11-20T17:13:40;6.70;99.90
5723;DHT22;2886;49.722;8.612;2022-11-20T17:16:09;6.70;99.90
5723;DHT22;2886;49.722;8.612;2022-11-20T17:18:35;6.70;99.90
5723;DHT22;2886;49.722;8.612;2022-11-20T17:21:02;6.70;99.90
5723;DHT22;2886;49.722;8.612;2022-11-20T17:23:31;6.70;99.90
5723;DHT22;2886;49.722;8.612;2022-11-20T17:26:06;6.70;99.90
5723;DHT22;2886;49.722;8.612;2022-11-20T17:28:33;6.70;99.90
5723;DHT22;2886;49.722;8.612;2022-11-20T17:31:03;6.70;99.90
5723;DHT22;2886;49.722;8.612;2022-11-20T17:33:30;6.70;99.90
5723;DHT22;2886;49.722;8.612;2022-11-20T17:35:55;6.70;99.90
5723;DHT22;2886;49.722;8.612;2022-11-20T17:38:21;6.60;99.90
5723;DHT22;2886;49.722;8.612;2022-11-20T17:40:47;6.60;99.90
5723;DHT22;2886;49.722;8.612;2022-11-20T17:43:13;6.70;99.90
5723;DHT22;2886;49.722;8.612;2022-11-20T17:45:39;6.60;99.90
5723;DHT22;2886;49.722;8.612;2022-11-20T17:48:04;6.70;99.90
5723;DHT22;2886;49.722;8.612;2022-11-20T17:50:30;6.70;99.90